Time;durP1;ratioP1;P1;durP2;ratioP2;P2;SDS_P1;SDS_P2;PMS_P1;PMS_P2;Temp;Humidity;BMP_temperature;BMP_pressure;BME280_temperature;BME280_humidity;BME280_pressure;Samples;Min_cycle;Max_cycle;Signal;HPM_P1;HPM_P2
2023/12/08 06:02:37;;;;;;;29.37;14.90;;;;;;;;;;5015381;28;20999;-77
2023/12/08 06:05:03;;;;;;;47.40;15.40;;;;;;;;;;4997483;28;20477;-77
2023/12/08 06:07:29;;;;;;;38.37;15.87;;;;;;;;;;5014911;28;20472;-77
2023/12/08 06:09:54;;;;;;;33.63;15.50;;;;;;;;;;5018587;28;20434;-77
2023/12/08 06:12:20;;;;;;;29.17;13.70;;;;;;;;;;4997868;28;20449;-77
2023/12/08 06:14:46;;;;;;;28.40;13.17;;;;;;;;;;5001853;28;20485;-77
2023/12/08 06:17:12;;;;;;;36.03;15.30;;;;;;;;;;5127379;22;20503;-74
2023/12/08 06:19:39;;;;;;;32.70;14.03;;;;;;;;;;5052424;28;20786;-74
2023/12/08 06:22:05;;;;;;;32.03;14.97;;;;;;;;;;5057580;28;20435;-74
2023/12/08 06:24:31;;;;;;;31.80;14.80;;;;;;;;;;5052368;28;21344;-74
2023/12/08 06:26:57;;;;;;;42.10;15.60;;;;;;;;;;5036333;28;20458;-74
2023/12/08 06:29:23;;;;;;;36.00;15.63;;;;;;;;;;5030437;28;20437;-74
2023/12/08 06:31:49;;;;;;;31.90;14.17;;;;;;;;;;5032701;28;20765;-74
2023/12/08 06:34:15;;;;;;;31.00;14.03;;;;;;;;;;5034491;28;20861;-74
2023/12/08 06:36:48;;;;;;;33.00;15.60;;;;;;;;;;5038129;28;20833;-74
2023/12/08 06:39:15;;;;;;;37.17;15.10;;;;;;;;;;5035027;28;20439;-74
2023/12/08 06:41:41;;;;;;;28.37;14.10;;;;;;;;;;5032513;28;20432;-74
2023/12/08 06:44:07;;;;;;;33.47;14.43;;;;;;;;;;5034337;28;20468;-74
2023/12/08 06:46:33;;;;;;;23.73;12.40;;;;;;;;;;5033238;28;21045;-74
2023/12/08 06:48:59;;;;;;;27.30;12.43;;;;;;;;;;5037155;28;20467;-73
2023/12/08 06:51:25;;;;;;;25.03;12.60;;;;;;;;;;5033311;28;20466;-73
2023/12/08 06:53:51;;;;;;;27.60;12.97;;;;;;;;;;5036107;28;20437;-73
2023/12/08 06:56:17;;;;;;;25.83;13.43;;;;;;;;;;5029190;28;20457;-73
2023/12/08 06:58:43;;;;;;;24.90;12.47;;;;;;;;;;5026971;28;20443;-73
2023/12/08 07:01:09;;;;;;;33.17;14.13;;;;;;;;;;5031097;28;20559;-73
2023/12/08 07:03:35;;;;;;;28.13;12.80;;;;;;;;;;5028056;28;20515;-73
2023/12/08 07:06:01;;;;;;;26.80;13.70;;;;;;;;;;5033161;28;20462;-73
2023/12/08 07:08:27;;;;;;;37.30;14.17;;;;;;;;;;5028573;28;20515;-73
2023/12/08 07:10:52;;;;;;;26.40;14.27;;;;;;;;;;5027904;28;20662;-73
2023/12/08 07:13:18;;;;;;;33.83;14.10;;;;;;;;;;5028772;28;20436;-72
2023/12/08 07:15:44;;;;;;;30.40;13.40;;;;;;;;;;5029009;28;21047;-72
2023/12/08 07:18:10;;;;;;;32.03;15.50;;;;;;;;;;5031076;28;20877;-73
2023/12/08 07:20:36;;;;;;;30.80;13.80;;;;;;;;;;5027800;28;21149;-72
2023/12/08 07:23:02;;;;;;;33.50;14.03;;;;;;;;;;5029304;28;20420;-73
2023/12/08 07:25:28;;;;;;;39.67;15.40;;;;;;;;;;5028816;28;22841;-73
2023/12/08 07:27:54;;;;;;;41.83;16.20;;;;;;;;;;5029854;28;22306;-72
2023/12/08 07:30:20;;;;;;;43.87;16.70;;;;;;;;;;5026632;28;20471;-73
2023/12/08 07:32:46;;;;;;;43.63;16.47;;;;;;;;;;5026522;28;20429;-73
2023/12/08 07:35:12;;;;;;;38.90;17.80;;;;;;;;;;5031224;28;20437;-72
2023/12/08 07:37:39;;;;;;;45.70;19.63;;;;;;;;;;5027265;28;20936;-73
2023/12/08 07:40:07;;;;;;;40.30;19.00;;;;;;;;;;5027527;28;20454;-72
2023/12/08 07:42:33;;;;;;;44.57;18.33;;;;;;;;;;5024880;28;20431;-73
2023/12/08 07:44:59;;;;;;;40.70;16.17;;;;;;;;;;5026784;28;20969;-73
2023/12/08 07:47:25;;;;;;;52.77;21.87;;;;;;;;;;5027137;28;20923;-72
2023/12/08 07:49:51;;;;;;;46.93;21.20;;;;;;;;;;5025657;28;20436;-73
2023/12/08 07:52:17;;;;;;;43.03;19.60;;;;;;;;;;5027067;28;20432;-72
2023/12/08 07:54:42;;;;;;;53.40;21.20;;;;;;;;;;5026952;28;20924;-74
2023/12/08 07:57:08;;;;;;;60.13;23.87;;;;;;;;;;5027172;28;20913;-73
2023/12/08 07:59:34;;;;;;;56.33;23.23;;;;;;;;;;5026491;28;20493;-73
2023/12/08 08:02:00;;;;;;;62.87;23.30;;;;;;;;;;5030414;28;20935;-73
2023/12/08 08:04:26;;;;;;;54.47;24.50;;;;;;;;;;5018794;28;20983;-72
2023/12/08 08:06:52;;;;;;;60.30;24.30;;;;;;;;;;5041830;28;20807;-72
2023/12/08 08:09:19;;;;;;;64.20;26.10;;;;;;;;;;5039740;28;20797;-72
2023/12/08 08:11:45;;;;;;;61.60;26.80;;;;;;;;;;5042565;28;20425;-72
2023/12/08 08:14:11;;;;;;;61.63;24.70;;;;;;;;;;5023010;28;20436;-73
2023/12/08 08:16:37;;;;;;;63.10;22.47;;;;;;;;;;5024164;28;20522;-73
2023/12/08 08:19:03;;;;;;;62.47;24.53;;;;;;;;;;5040381;28;20439;-73
2023/12/08 08:21:29;;;;;;;59.70;24.83;;;;;;;;;;5037696;28;20440;-73
2023/12/08 08:23:55;;;;;;;75.03;24.80;;;;;;;;;;5039911;28;20843;-73
2023/12/08 08:26:23;;;;;;;57.60;24.07;;;;;;;;;;5025833;28;20538;-73
2023/12/08 08:28:49;;;;;;;66.93;25.60;;;;;;;;;;5038721;28;20434;-73
2023/12/08 08:31:19;;;;;;;62.67;24.93;;;;;;;;;;5031728;28;20435;-73
2023/12/08 08:33:45;;;;;;;49.33;21.90;;;;;;;;;;5030559;28;20446;-73
2023/12/08 08:36:11;;;;;;;59.80;22.90;;;;;;;;;;5032220;28;20455;-73
2023/12/08 08:38:37;;;;;;;51.73;23.60;;;;;;;;;;5035253;28;20452;-73
2023/12/08 08:41:04;;;;;;;56.67;24.20;;;;;;;;;;5033355;28;20433;-72
2023/12/08 08:43:30;;;;;;;60.10;24.73;;;;;;;;;;5050317;28;20462;-73
2023/12/08 08:45:56;;;;;;;53.27;21.50;;;;;;;;;;5039058;28;20457;-73
2023/12/08 08:48:22;;;;;;;57.50;24.73;;;;;;;;;;5038901;28;20440;-74
2023/12/08 08:50:48;;;;;;;49.87;21.43;;;;;;;;;;5033892;28;20894;-74
2023/12/08 08:53:16;;;;;;;44.47;20.20;;;;;;;;;;5035419;28;20451;-74
2023/12/08 08:55:42;;;;;;;49.17;20.67;;;;;;;;;;5029921;28;20456;-73
2023/12/08 08:58:08;;;;;;;51.67;22.13;;;;;;;;;;5030232;28;20449;-74
2023/12/08 09:00:34;;;;;;;46.80;21.33;;;;;;;;;;5029831;28;20808;-74
2023/12/08 09:03:01;;;;;;;50.13;20.90;;;;;;;;;;5031345;28;20442;-73
2023/12/08 09:05:27;;;;;;;49.90;21.67;;;;;;;;;;5033952;28;20470;-74
2023/12/08 09:07:53;;;;;;;44.70;20.17;;;;;;;;;;5037287;28;20801;-73
2023/12/08 09:10:19;;;;;;;47.90;20.97;;;;;;;;;;5032624;28;20963;-73
2023/12/08 09:12:45;;;;;;;43.53;19.57;;;;;;;;;;5034671;28;20444;-73
2023/12/08 09:15:12;;;;;;;54.87;22.63;;;;;;;;;;5028494;28;20436;-74
2023/12/08 09:17:38;;;;;;;56.83;24.70;;;;;;;;;;5033100;28;20578;-73
2023/12/08 09:20:07;;;;;;;59.07;24.47;;;;;;;;;;5031082;28;20524;-74
2023/12/08 09:22:33;;;;;;;57.93;23.60;;;;;;;;;;5014240;28;20448;-73
2023/12/08 09:24:59;;;;;;;49.20;21.10;;;;;;;;;;5029093;28;20476;-74
2023/12/08 09:27:25;;;;;;;51.87;21.67;;;;;;;;;;5030788;28;20475;-74
2023/12/08 09:29:51;;;;;;;44.30;18.77;;;;;;;;;;5035939;28;20520;-74
2023/12/08 09:32:17;;;;;;;54.00;21.17;;;;;;;;;;5030632;28;20440;-74
2023/12/08 09:34:43;;;;;;;53.53;21.80;;;;;;;;;;5034580;28;20526;-74
2023/12/08 09:37:09;;;;;;;48.77;21.80;;;;;;;;;;5035252;28;20516;-74
2023/12/08 09:39:35;;;;;;;37.97;18.40;;;;;;;;;;5030074;28;20448;-74
2023/12/08 09:42:05;;;;;;;55.97;22.60;;;;;;;;;;5032370;28;20432;-73
2023/12/08 09:44:32;;;;;;;55.17;23.80;;;;;;;;;;5032402;28;20456;-73
2023/12/08 09:47:01;;;;;;;49.70;21.53;;;;;;;;;;5039697;28;20993;-74
2023/12/08 09:49:28;;;;;;;48.30;21.43;;;;;;;;;;5041392;28;20424;-73
2023/12/08 09:51:54;;;;;;;54.50;22.47;;;;;;;;;;5039561;28;20428;-73
2023/12/08 09:54:21;;;;;;;47.97;22.63;;;;;;;;;;5037984;28;20443;-73
2023/12/08 09:56:48;;;;;;;39.67;19.00;;;;;;;;;;5025232;28;20468;-72
2023/12/08 09:59:15;;;;;;;47.57;22.50;;;;;;;;;;5038870;28;20463;-72
2023/12/08 10:01:41;;;;;;;43.20;20.97;;;;;;;;;;5036209;28;20448;-73
2023/12/08 10:04:07;;;;;;;53.33;23.73;;;;;;;;;;5032286;28;20967;-73
2023/12/08 10:06:34;;;;;;;62.53;22.07;;;;;;;;;;5033119;28;20464;-73
2023/12/08 10:09:00;;;;;;;65.23;26.40;;;;;;;;;;5032731;28;22301;-73
2023/12/08 10:11:26;;;;;;;55.50;24.97;;;;;;;;;;5032882;28;20444;-73
2023/12/08 10:13:53;;;;;;;54.63;23.83;;;;;;;;;;5028776;28;20491;-73
2023/12/08 10:16:19;;;;;;;61.07;24.60;;;;;;;;;;5033108;28;20970;-73
2023/12/08 10:18:44;;;;;;;54.77;21.03;;;;;;;;;;5031415;28;20963;-73
2023/12/08 10:21:15;;;;;;;55.23;22.03;;;;;;;;;;5027592;28;20448;-74
2023/12/08 10:23:42;;;;;;;52.10;21.67;;;;;;;;;;5028539;28;20551;-73
2023/12/08 10:26:09;;;;;;;46.20;19.40;;;;;;;;;;5037589;28;20460;-73
2023/12/08 10:28:35;;;;;;;47.93;20.17;;;;;;;;;;5031060;28;20494;-73
2023/12/08 10:31:01;;;;;;;47.90;20.13;;;;;;;;;;5012784;28;20456;-73
2023/12/08 10:33:27;;;;;;;51.70;20.63;;;;;;;;;;5027450;28;20819;-73
2023/12/08 10:35:52;;;;;;;51.80;21.67;;;;;;;;;;5019602;28;20461;-73
2023/12/08 10:38:21;;;;;;;40.83;18.70;;;;;;;;;;5032228;28;21014;-74
2023/12/08 10:40:47;;;;;;;47.87;21.33;;;;;;;;;;5030046;28;20440;-73
2023/12/08 10:43:22;;;;;;;45.27;19.97;;;;;;;;;;5028710;28;20431;-74
2023/12/08 10:45:50;;;;;;;48.00;20.97;;;;;;;;;;5028047;28;20480;-73
2023/12/08 10:48:16;;;;;;;42.77;21.13;;;;;;;;;;5029746;28;20432;-73
2023/12/08 10:50:42;;;;;;;48.27;19.07;;;;;;;;;;5030996;28;20445;-73
2023/12/08 10:53:08;;;;;;;45.70;18.57;;;;;;;;;;5027162;28;20806;-73
2023/12/08 10:55:34;;;;;;;47.17;19.77;;;;;;;;;;5027902;28;20483;-73
2023/12/08 10:58:01;;;;;;;39.77;17.57;;;;;;;;;;5027074;28;20791;-73
2023/12/08 11:00:28;;;;;;;44.83;17.37;;;;;;;;;;5026463;28;20428;-74
2023/12/08 11:02:55;;;;;;;32.63;17.00;;;;;;;;;;5027723;28;20429;-73
2023/12/08 11:05:53;;;;;;;30.30;14.83;;;;;;;;;;5031947;28;20505;-74
2023/12/08 11:08:19;;;;;;;40.43;15.10;;;;;;;;;;5001057;28;20432;-74
2023/12/08 11:10:50;;;;;;;34.57;14.83;;;;;;;;;;5032107;28;20839;-73
2023/12/08 11:13:29;;;;;;;37.23;15.17;;;;;;;;;;5031473;28;20899;-73
2023/12/08 11:16:05;;;;;;;27.03;13.10;;;;;;;;;;5034527;28;22373;-74
2023/12/08 11:18:35;;;;;;;27.17;13.80;;;;;;;;;;5031684;28;20939;-73
2023/12/08 11:21:01;;;;;;;32.53;12.60;;;;;;;;;;5033552;28;21157;-74
2023/12/08 11:23:27;;;;;;;26.83;11.93;;;;;;;;;;5026797;28;20475;-74
2023/12/08 11:26:00;;;;;;;37.90;13.40;;;;;;;;;;5030704;28;20452;-73
2023/12/08 11:28:39;;;;;;;24.80;12.53;;;;;;;;;;5029322;28;20428;-74
2023/12/08 11:31:17;;;;;;;24.93;12.47;;;;;;;;;;5030410;28;20472;-74
2023/12/08 11:33:59;;;;;;;24.43;13.00;;;;;;;;;;5032964;28;20554;-73
2023/12/08 11:36:28;;;;;;;27.60;13.17;;;;;;;;;;5032748;28;20676;-74
2023/12/08 11:38:55;;;;;;;30.60;12.97;;;;;;;;;;5026664;28;20448;-74
2023/12/08 11:41:24;;;;;;;30.03;12.40;;;;;;;;;;5031728;28;20455;-73
2023/12/08 11:43:50;;;;;;;27.97;13.57;;;;;;;;;;5032439;28;20462;-73
2023/12/08 11:46:17;;;;;;;26.83;13.50;;;;;;;;;;5031434;28;20586;-74
2023/12/08 11:48:44;;;;;;;24.87;12.17;;;;;;;;;;5030178;28;21025;-73
2023/12/08 11:51:11;;;;;;;21.20;12.00;;;;;;;;;;5028935;28;20436;-74
2023/12/08 11:53:54;;;;;;;24.80;11.50;;;;;;;;;;5028790;28;20439;-73
2023/12/08 11:56:38;;;;;;;25.10;10.60;;;;;;;;;;5030373;28;20472;-73
2023/12/08 11:59:05;;;;;;;19.17;10.30;;;;;;;;;;5028544;28;20530;-74
2023/12/08 12:01:31;;;;;;;22.20;10.63;;;;;;;;;;5024547;28;20810;-73
2023/12/08 12:03:57;;;;;;;20.40;9.67;;;;;;;;;;5028034;28;20470;-73
2023/12/08 12:06:23;;;;;;;25.73;10.90;;;;;;;;;;5010602;28;20974;-73
2023/12/08 12:08:50;;;;;;;19.53;10.90;;;;;;;;;;5023921;28;20494;-73
2023/12/08 12:11:18;;;;;;;18.63;9.60;;;;;;;;;;5027054;28;21053;-74
2023/12/08 12:13:44;;;;;;;18.30;10.50;;;;;;;;;;5030540;28;20466;-73
2023/12/08 12:16:10;;;;;;;19.00;9.93;;;;;;;;;;5029958;28;20474;-73
2023/12/08 12:18:36;;;;;;;20.63;11.13;;;;;;;;;;5025269;28;20506;-72
2023/12/08 12:21:02;;;;;;;22.00;10.20;;;;;;;;;;5012235;28;20440;-73
2023/12/08 12:23:28;;;;;;;17.33;9.80;;;;;;;;;;5026862;28;20452;-73
2023/12/08 12:25:54;;;;;;;31.97;12.03;;;;;;;;;;5027874;28;20463;-74
2023/12/08 12:28:20;;;;;;;29.30;13.63;;;;;;;;;;5026122;28;20843;-74
2023/12/08 12:30:49;;;;;;;42.20;15.47;;;;;;;;;;5028427;28;20433;-74
2023/12/08 12:33:15;;;;;;;34.43;16.80;;;;;;;;;;5028765;28;20911;-74
2023/12/08 12:35:42;;;;;;;35.53;16.83;;;;;;;;;;5029873;28;20551;-74
2023/12/08 12:38:08;;;;;;;29.50;16.30;;;;;;;;;;5027564;28;20437;-74
2023/12/08 12:40:34;;;;;;;36.90;17.00;;;;;;;;;;5025246;28;20907;-73
2023/12/08 12:43:00;;;;;;;37.17;18.47;;;;;;;;;;5028342;28;20811;-75
2023/12/08 12:45:30;;;;;;;35.70;16.30;;;;;;;;;;5032637;28;20560;-74
2023/12/08 12:48:10;;;;;;;32.00;15.40;;;;;;;;;;5031442;28;20443;-74
2023/12/08 12:50:46;;;;;;;29.60;14.67;;;;;;;;;;5039059;28;20443;-73
2023/12/08 12:53:14;;;;;;;33.53;14.23;;;;;;;;;;5031247;28;20444;-74
2023/12/08 12:55:40;;;;;;;29.77;15.27;;;;;;;;;;5029611;28;20448;-74
2023/12/08 12:58:06;;;;;;;34.50;16.23;;;;;;;;;;5030855;28;20521;-74
2023/12/08 13:00:32;;;;;;;29.37;15.40;;;;;;;;;;5033211;28;20853;-74
2023/12/08 13:03:05;;;;;;;38.73;15.77;;;;;;;;;;5032703;28;20433;-74
2023/12/08 13:05:31;;;;;;;26.40;15.00;;;;;;;;;;5029965;28;20543;-74
2023/12/08 13:07:58;;;;;;;31.90;14.23;;;;;;;;;;5029859;28;20444;-74
2023/12/08 13:10:24;;;;;;;37.20;17.20;;;;;;;;;;5028861;28;20441;-74
2023/12/08 13:12:50;;;;;;;30.50;15.60;;;;;;;;;;5030324;28;20433;-74
2023/12/08 13:15:19;;;;;;;33.20;14.37;;;;;;;;;;5030200;28;20532;-73
2023/12/08 13:17:45;;;;;;;28.70;13.90;;;;;;;;;;5015842;28;20824;-73
2023/12/08 13:20:11;;;;;;;33.50;14.20;;;;;;;;;;5027171;28;20436;-73
2023/12/08 13:22:37;;;;;;;31.23;15.40;;;;;;;;;;5031359;28;20464;-72
2023/12/08 13:25:04;;;;;;;32.90;14.00;;;;;;;;;;5030369;28;20471;-73
2023/12/08 13:27:31;;;;;;;21.27;12.30;;;;;;;;;;5028510;28;20464;-74
2023/12/08 13:29:57;;;;;;;31.60;13.20;;;;;;;;;;5029887;28;20523;-73
2023/12/08 13:32:24;;;;;;;30.30;14.13;;;;;;;;;;5035627;28;20528;-73
2023/12/08 13:34:50;;;;;;;34.83;13.97;;;;;;;;;;5032245;28;20444;-73
2023/12/08 13:37:16;;;;;;;29.83;13.80;;;;;;;;;;5042264;28;20463;-73
2023/12/08 13:39:42;;;;;;;27.40;14.07;;;;;;;;;;5018011;28;20996;-73
2023/12/08 13:42:08;;;;;;;35.03;14.10;;;;;;;;;;5031616;28;20476;-73
2023/12/08 13:44:34;;;;;;;26.67;14.77;;;;;;;;;;5032147;28;20848;-73
2023/12/08 13:47:00;;;;;;;29.07;14.27;;;;;;;;;;5029591;28;20510;-73
2023/12/08 13:49:26;;;;;;;30.17;14.47;;;;;;;;;;5029568;28;21274;-73
2023/12/08 13:51:52;;;;;;;36.97;17.37;;;;;;;;;;5028206;28;20444;-73
2023/12/08 13:54:18;;;;;;;41.20;16.30;;;;;;;;;;5028099;28;20455;-74
2023/12/08 13:56:44;;;;;;;30.63;16.07;;;;;;;;;;5031472;28;20475;-74
2023/12/08 13:59:10;;;;;;;30.90;15.10;;;;;;;;;;5036346;28;20436;-74
2023/12/08 14:01:36;;;;;;;30.20;14.37;;;;;;;;;;5040375;28;20439;-74
2023/12/08 14:04:02;;;;;;;31.17;15.20;;;;;;;;;;5039609;28;20486;-74
2023/12/08 14:06:28;;;;;;;23.80;13.50;;;;;;;;;;5039987;28;20474;-74
2023/12/08 14:08:54;;;;;;;27.83;14.20;;;;;;;;;;5030323;28;20440;-74
2023/12/08 14:11:20;;;;;;;28.37;14.83;;;;;;;;;;5031275;28;20439;-74
2023/12/08 14:13:46;;;;;;;32.10;15.07;;;;;;;;;;5032304;28;21027;-74
2023/12/08 14:16:12;;;;;;;23.93;12.83;;;;;;;;;;5029277;28;21041;-74
2023/12/08 14:18:38;;;;;;;32.07;14.30;;;;;;;;;;5029515;28;20447;-74
2023/12/08 14:21:05;;;;;;;22.00;12.57;;;;;;;;;;5026636;28;20509;-74
2023/12/08 14:23:31;;;;;;;23.40;11.40;;;;;;;;;;5027574;28;20433;-74
2023/12/08 14:25:57;;;;;;;20.83;10.97;;;;;;;;;;5029423;28;20461;-74
2023/12/08 14:28:23;;;;;;;22.67;11.00;;;;;;;;;;5028216;28;20440;-74
2023/12/08 14:30:49;;;;;;;22.93;12.67;;;;;;;;;;5032414;28;20433;-74
2023/12/08 14:33:16;;;;;;;27.27;12.40;;;;;;;;;;5031220;28;20441;-74
2023/12/08 14:35:42;;;;;;;23.93;11.93;;;;;;;;;;5018211;28;20461;-74
2023/12/08 14:38:08;;;;;;;21.20;11.17;;;;;;;;;;5032069;28;20582;-74
2023/12/08 14:40:35;;;;;;;20.93;10.90;;;;;;;;;;5028833;28;20436;-74
2023/12/08 14:43:01;;;;;;;20.20;10.97;;;;;;;;;;5029898;28;20432;-73
2023/12/08 14:45:27;;;;;;;24.97;13.17;;;;;;;;;;5032358;28;20690;-74
2023/12/08 14:47:53;;;;;;;24.57;12.70;;;;;;;;;;5026591;28;20794;-74
2023/12/08 14:50:19;;;;;;;31.40;13.90;;;;;;;;;;5025717;28;20457;-74
2023/12/08 14:52:45;;;;;;;24.10;12.00;;;;;;;;;;5030417;28;20543;-74
2023/12/08 14:55:11;;;;;;;18.23;11.50;;;;;;;;;;5033224;28;20582;-74
2023/12/08 14:57:37;;;;;;;27.90;13.13;;;;;;;;;;5037682;28;20437;-74
2023/12/08 15:00:04;;;;;;;28.37;15.43;;;;;;;;;;5030913;28;20924;-74
2023/12/08 15:02:30;;;;;;;33.43;16.10;;;;;;;;;;5031874;28;20440;-75
2023/12/08 15:04:55;;;;;;;38.43;15.07;;;;;;;;;;5030307;28;20986;-75
2023/12/08 15:07:21;;;;;;;28.13;14.03;;;;;;;;;;5028223;28;20466;-75
2023/12/08 15:09:47;;;;;;;24.83;14.00;;;;;;;;;;5031463;28;20428;-74
2023/12/08 15:12:13;;;;;;;24.27;12.27;;;;;;;;;;5028222;28;20429;-75
2023/12/08 15:14:39;;;;;;;25.60;13.40;;;;;;;;;;5031421;28;20810;-74
2023/12/08 15:17:06;;;;;;;31.83;16.60;;;;;;;;;;5029924;28;20833;-75
2023/12/08 15:19:32;;;;;;;32.17;15.30;;;;;;;;;;5030440;28;20452;-74
2023/12/08 15:22:00;;;;;;;28.60;14.40;;;;;;;;;;5029506;28;20433;-74
2023/12/08 15:24:26;;;;;;;34.93;15.10;;;;;;;;;;5025747;28;20476;-74
2023/12/08 15:26:52;;;;;;;27.60;13.40;;;;;;;;;;5024999;28;20447;-74
2023/12/08 15:29:19;;;;;;;31.40;14.30;;;;;;;;;;5029726;28;20432;-74
2023/12/08 15:31:45;;;;;;;26.83;14.13;;;;;;;;;;5030996;28;20477;-74
2023/12/08 15:34:11;;;;;;;36.53;14.80;;;;;;;;;;5028822;28;20472;-74
2023/12/08 15:36:38;;;;;;;45.60;17.97;;;;;;;;;;5027911;28;20460;-74
2023/12/08 15:39:05;;;;;;;41.63;19.23;;;;;;;;;;5031001;28;20999;-74
2023/12/08 15:41:31;;;;;;;36.03;15.63;;;;;;;;;;5028916;28;20467;-74
2023/12/08 15:43:57;;;;;;;27.17;13.33;;;;;;;;;;5030061;28;20500;-73
2023/12/08 15:46:23;;;;;;;30.37;14.20;;;;;;;;;;5029125;28;20547;-73
2023/12/08 15:48:49;;;;;;;35.80;16.20;;;;;;;;;;5033236;28;20580;-73
2023/12/08 15:51:15;;;;;;;30.70;14.10;;;;;;;;;;5030890;28;20439;-73
2023/12/08 15:53:44;;;;;;;34.70;17.60;;;;;;;;;;5034995;28;20437;-73
2023/12/08 15:56:10;;;;;;;34.50;16.63;;;;;;;;;;5033930;28;20823;-74
2023/12/08 15:58:37;;;;;;;32.57;15.20;;;;;;;;;;5027605;28;20554;-73
2023/12/08 16:01:03;;;;;;;38.40;15.53;;;;;;;;;;5027794;28;20944;-75
2023/12/08 16:03:28;;;;;;;31.67;17.00;;;;;;;;;;5027930;28;20996;-74
2023/12/08 16:05:54;;;;;;;40.00;17.57;;;;;;;;;;5026877;28;20480;-74
2023/12/08 16:08:20;;;;;;;36.77;17.30;;;;;;;;;;5027763;28;20448;-74
2023/12/08 16:10:47;;;;;;;37.00;17.17;;;;;;;;;;5030811;28;20441;-74
2023/12/08 16:13:13;;;;;;;30.70;15.17;;;;;;;;;;5036515;28;20534;-73
2023/12/08 16:15:39;;;;;;;30.73;15.23;;;;;;;;;;5030695;28;20558;-75
2023/12/08 16:18:04;;;;;;;37.30;15.80;;;;;;;;;;5036211;28;20952;-74
2023/12/08 16:20:30;;;;;;;31.03;15.23;;;;;;;;;;5029389;28;20444;-73
2023/12/08 16:22:56;;;;;;;34.03;16.80;;;;;;;;;;5032935;28;20436;-73
2023/12/08 16:25:23;;;;;;;32.07;16.17;;;;;;;;;;5033534;28;20474;-73
2023/12/08 16:27:49;;;;;;;34.57;17.00;;;;;;;;;;5034071;28;20424;-73
2023/12/08 16:30:15;;;;;;;37.07;17.97;;;;;;;;;;5034385;28;20565;-73
2023/12/08 16:32:41;;;;;;;32.90;15.70;;;;;;;;;;5034508;28;20920;-73
2023/12/08 16:35:07;;;;;;;43.20;20.03;;;;;;;;;;5036059;28;20447;-74
2023/12/08 16:37:36;;;;;;;36.50;17.67;;;;;;;;;;5035251;28;20444;-73
2023/12/08 16:40:02;;;;;;;33.43;16.73;;;;;;;;;;5034362;28;20467;-73
2023/12/08 16:42:28;;;;;;;37.67;18.37;;;;;;;;;;5032730;28;20935;-74
2023/12/08 16:44:54;;;;;;;42.40;19.57;;;;;;;;;;5039805;28;20474;-73
2023/12/08 16:47:20;;;;;;;40.60;21.23;;;;;;;;;;5052266;28;20499;-73
2023/12/08 16:49:46;;;;;;;37.17;18.43;;;;;;;;;;5057499;28;20506;-73
2023/12/08 16:52:12;;;;;;;35.17;17.70;;;;;;;;;;5057215;28;21132;-73
2023/12/08 16:54:38;;;;;;;44.87;23.10;;;;;;;;;;5060961;28;20408;-73
2023/12/08 16:57:05;;;;;;;44.00;20.00;;;;;;;;;;5061654;28;20471;-73
2023/12/08 16:59:32;;;;;;;41.77;18.83;;;;;;;;;;5042023;28;20427;-73
2023/12/08 17:01:58;;;;;;;44.00;20.50;;;;;;;;;;5060074;28;20412;-73
2023/12/08 17:04:26;;;;;;;38.40;18.50;;;;;;;;;;5057132;28;20458;-73
2023/12/08 17:06:52;;;;;;;38.50;19.00;;;;;;;;;;5058759;28;20761;-73
2023/12/08 17:09:18;;;;;;;37.00;19.43;;;;;;;;;;5056664;28;20408;-73
2023/12/08 17:11:44;;;;;;;38.10;18.93;;;;;;;;;;5056373;28;20792;-73
2023/12/08 17:14:11;;;;;;;46.97;22.27;;;;;;;;;;5053892;28;20740;-73
2023/12/08 17:16:37;;;;;;;39.07;17.60;;;;;;;;;;5053799;28;20443;-74
2023/12/08 17:19:03;;;;;;;50.43;20.70;;;;;;;;;;5053649;28;20502;-73
2023/12/08 17:21:29;;;;;;;37.97;17.17;;;;;;;;;;5054017;28;20503;-73
2023/12/08 17:23:55;;;;;;;35.27;17.90;;;;;;;;;;5054120;28;20451;-73
2023/12/08 17:26:21;;;;;;;35.90;18.00;;;;;;;;;;5054186;28;20451;-73
2023/12/08 17:28:47;;;;;;;75.47;21.07;;;;;;;;;;5053878;28;20409;-73
2023/12/08 17:31:15;;;;;;;36.00;18.67;;;;;;;;;;5054001;28;20469;-72
2023/12/08 17:33:42;;;;;;;33.30;16.17;;;;;;;;;;5052934;28;20777;-73
2023/12/08 17:36:08;;;;;;;38.50;16.73;;;;;;;;;;5035550;28;20969;-73
2023/12/08 17:38:34;;;;;;;38.13;17.47;;;;;;;;;;5053522;28;20468;-74
2023/12/08 17:41:00;;;;;;;35.57;17.93;;;;;;;;;;5053772;28;20781;-73
2023/12/08 17:43:30;;;;;;;42.47;19.53;;;;;;;;;;5053655;28;20405;-74
2023/12/08 17:45:56;;;;;;;33.83;18.40;;;;;;;;;;5053594;28;20862;-73
2023/12/08 17:48:22;;;;;;;42.80;19.00;;;;;;;;;;5053590;28;20755;-73
2023/12/08 17:50:48;;;;;;;29.03;16.07;;;;;;;;;;5053517;28;20475;-73
2023/12/08 17:53:14;;;;;;;34.70;18.10;;;;;;;;;;5035664;28;20473;-73
2023/12/08 17:55:40;;;;;;;40.10;22.90;;;;;;;;;;5053556;28;20435;-73
2023/12/08 17:58:05;;;;;;;41.37;21.20;;;;;;;;;;5055743;28;20417;-73
2023/12/08 18:00:31;;;;;;;42.87;18.10;;;;;;;;;;5053385;28;20412;-73
2023/12/08 18:02:59;;;;;;;36.47;17.60;;;;;;;;;;5053400;28;20473;-73
2023/12/08 18:05:25;;;;;;;29.93;16.57;;;;;;;;;;5053593;28;20541;-73
2023/12/08 18:07:51;;;;;;;35.27;17.20;;;;;;;;;;5053670;28;20839;-73
2023/12/08 18:10:17;;;;;;;32.70;17.57;;;;;;;;;;5054340;28;20744;-74
2023/12/08 18:12:43;;;;;;;38.60;20.97;;;;;;;;;;5053672;28;20401;-73
2023/12/08 18:15:09;;;;;;;32.67;17.87;;;;;;;;;;5053897;28;20416;-73
2023/12/08 18:17:35;;;;;;;38.03;18.13;;;;;;;;;;5053658;28;20424;-73
2023/12/08 18:20:02;;;;;;;32.90;16.67;;;;;;;;;;5053535;28;20507;-73
2023/12/08 18:22:30;;;;;;;30.87;16.83;;;;;;;;;;5053538;28;20485;-73
2023/12/08 18:24:56;;;;;;;35.90;16.90;;;;;;;;;;5056549;28;20490;-73
2023/12/08 18:27:22;;;;;;;33.10;15.47;;;;;;;;;;5066831;28;20428;-73
2023/12/08 18:29:48;;;;;;;27.90;15.27;;;;;;;;;;5062089;28;20460;-73
2023/12/08 18:32:14;;;;;;;30.50;15.53;;;;;;;;;;5059399;28;20407;-73
2023/12/08 18:34:40;;;;;;;27.53;16.57;;;;;;;;;;5055232;28;20776;-73
2023/12/08 18:37:06;;;;;;;27.03;15.37;;;;;;;;;;5053589;28;20939;-73
2023/12/08 18:39:32;;;;;;;34.60;16.67;;;;;;;;;;5053085;28;20965;-73
2023/12/08 18:41:58;;;;;;;35.53;17.80;;;;;;;;;;5053186;28;20435;-73
2023/12/08 18:44:24;;;;;;;27.93;16.30;;;;;;;;;;5051995;28;20543;-73
2023/12/08 18:46:50;;;;;;;28.93;15.70;;;;;;;;;;5052698;28;20447;-73
2023/12/08 18:49:15;;;;;;;31.37;16.77;;;;;;;;;;5035011;28;20420;-74
2023/12/08 18:51:44;;;;;;;35.27;18.00;;;;;;;;;;5052735;28;20417;-73
2023/12/08 18:54:11;;;;;;;36.20;18.60;;;;;;;;;;5052597;28;20783;-73
2023/12/08 18:56:37;;;;;;;34.53;18.67;;;;;;;;;;5052533;28;20523;-73
2023/12/08 18:59:03;;;;;;;29.70;16.33;;;;;;;;;;5052009;28;20850;-73
2023/12/08 19:01:29;;;;;;;32.13;18.00;;;;;;;;;;5052605;28;20470;-73
2023/12/08 19:03:55;;;;;;;41.67;19.60;;;;;;;;;;5052375;28;20460;-74
2023/12/08 19:06:21;;;;;;;30.93;17.80;;;;;;;;;;5052179;28;21030;-73
2023/12/08 19:08:47;;;;;;;32.53;17.30;;;;;;;;;;5051875;28;20802;-73
2023/12/08 19:11:14;;;;;;;32.63;18.70;;;;;;;;;;5052179;28;20455;-73
2023/12/08 19:13:39;;;;;;;30.17;16.70;;;;;;;;;;5051982;28;20432;-73
2023/12/08 19:16:06;;;;;;;33.77;16.57;;;;;;;;;;5051645;28;20951;-73
2023/12/08 19:18:32;;;;;;;40.03;20.50;;;;;;;;;;5051534;28;20413;-73
2023/12/08 19:20:58;;;;;;;37.87;20.10;;;;;;;;;;5052019;28;20783;-73
2023/12/08 19:23:24;;;;;;;37.60;17.10;;;;;;;;;;5051980;28;20412;-73
2023/12/08 19:25:51;;;;;;;34.27;19.87;;;;;;;;;;5052193;28;20482;-73
2023/12/08 19:28:17;;;;;;;32.30;18.43;;;;;;;;;;5053700;28;20830;-73
2023/12/08 19:30:43;;;;;;;38.13;20.63;;;;;;;;;;5053644;28;20520;-73
2023/12/08 19:33:09;;;;;;;40.50;20.40;;;;;;;;;;5051972;28;20480;-73
2023/12/08 19:35:36;;;;;;;36.40;19.77;;;;;;;;;;5052185;28;20554;-74
2023/12/08 19:38:02;;;;;;;43.73;19.23;;;;;;;;;;5051974;28;20783;-73
2023/12/08 19:40:28;;;;;;;33.60;18.73;;;;;;;;;;5051591;28;20478;-74
2023/12/08 19:42:54;;;;;;;36.00;18.53;;;;;;;;;;5051259;28;20416;-74
2023/12/08 19:45:20;;;;;;;30.77;17.83;;;;;;;;;;5033455;28;20493;-74
2023/12/08 19:47:46;;;;;;;39.43;19.77;;;;;;;;;;5051515;28;20412;-74
2023/12/08 19:50:14;;;;;;;31.17;16.77;;;;;;;;;;5051800;28;20470;-74
2023/12/08 19:52:40;;;;;;;32.93;15.67;;;;;;;;;;5051042;28;20404;-74
2023/12/08 19:55:06;;;;;;;34.83;19.97;;;;;;;;;;5050279;28;20416;-74
2023/12/08 19:57:32;;;;;;;34.23;19.07;;;;;;;;;;5051476;28;20940;-74
2023/12/08 19:59:58;;;;;;;30.43;17.40;;;;;;;;;;5051355;28;20442;-74
2023/12/08 20:02:24;;;;;;;29.20;16.10;;;;;;;;;;5053305;28;20779;-74
2023/12/08 20:04:50;;;;;;;32.10;16.60;;;;;;;;;;5053410;28;20500;-74
2023/12/08 20:07:16;;;;;;;31.00;18.53;;;;;;;;;;5051642;28;20475;-72
2023/12/08 20:09:42;;;;;;;36.47;18.03;;;;;;;;;;5051338;28;20569;-72
2023/12/08 20:12:09;;;;;;;34.43;16.07;;;;;;;;;;5052209;28;20408;-74
2023/12/08 20:14:35;;;;;;;43.43;18.97;;;;;;;;;;5053124;28;20408;-73